createdAt,value
2022-10-30T07:19:29.609Z,96930.84
2022-10-30T07:20:33.071Z,96941.03
2022-10-30T07:21:34.540Z,96940.47
2022-10-30T07:22:38.908Z,96935.03
2022-10-30T07:23:40.319Z,96927.19
2022-10-30T07:24:44.841Z,96908.00
2022-10-30T07:25:46.168Z,96940.19
2022-10-30T07:26:47.555Z,96941.34
2022-10-30T07:27:53.070Z,96944.13
2022-10-30T07:28:54.399Z,96943.72
2022-10-30T07:29:55.734Z,96938.25
2022-10-30T07:30:58.574Z,96948.38
2022-10-30T07:32:03.109Z,96939.50
2022-10-30T07:33:07.564Z,96931.84
2022-10-30T07:34:08.964Z,96934.59
2022-10-30T07:35:12.615Z,96944.09
2022-10-30T07:43:05.053Z,96949.03
2022-10-30T07:44:06.432Z,96946.19
2022-10-30T07:46:15.199Z,96948.84
2022-10-30T07:47:16.614Z,96946.28
2022-10-30T07:48:18.178Z,96949.25
2022-10-30T07:49:19.508Z,96945.66
2022-10-30T07:50:21.246Z,96949.66
2022-10-30T07:51:22.661Z,96946.19
2022-10-30T07:52:24.018Z,96925.75
2022-10-30T07:53:25.363Z,96929.81
2022-10-30T07:54:26.697Z,96937.53
2022-10-30T07:55:28.204Z,96950.03
2022-10-30T07:56:30.360Z,96918.47
2022-10-30T07:57:39.714Z,96952.22
2022-10-30T07:58:45.259Z,96957.59
2022-10-30T08:00:57.336Z,96946.13
2022-10-30T08:02:00.786Z,96950.78
2022-10-30T08:03:03.129Z,96942.94
2022-10-30T08:04:05.032Z,96950.88
2022-10-30T08:05:06.813Z,96927.81
2022-10-30T08:07:14.429Z,96946.13
2022-10-30T08:08:15.789Z,96961.81
2022-10-30T08:09:17.655Z,96948.56
2022-10-30T08:10:19.045Z,96943.28
2022-10-30T08:11:20.556Z,96953.88
2022-10-30T08:12:21.970Z,96951.81
2022-10-30T08:13:23.490Z,96940.28
2022-10-30T08:14:24.955Z,96951.81
2022-10-30T08:15:26.546Z,96952.25
2022-10-30T08:16:28.508Z,96926.97
2022-10-30T08:17:29.919Z,96940.34
2022-10-30T08:18:31.287Z,96955.25
2022-10-30T08:19:32.595Z,96945.88
2022-10-30T08:20:33.968Z,96949.06
2022-10-30T08:21:35.417Z,96954.69
2022-10-30T08:22:47.531Z,96953.63
2022-10-30T08:23:49.038Z,96939.09
2022-10-30T08:24:50.464Z,96945.66
2022-10-30T08:25:56.368Z,96954.72
2022-10-30T08:26:57.883Z,96947.69
2022-10-30T08:28:00.395Z,96954.91
2022-10-30T08:29:01.853Z,96958.53
2022-10-30T08:30:03.600Z,96935.44
2022-10-30T08:31:09.104Z,96951.84
2022-10-30T08:32:10.483Z,96951.53
2022-10-30T08:33:15.727Z,96937.25
2022-10-30T08:34:17.236Z,96949.34
2022-10-30T08:35:19.997Z,96950.09
2022-10-30T08:36:21.983Z,96920.38
2022-10-30T08:37:23.372Z,96952.47
2022-10-30T08:38:25.796Z,96930.44
2022-10-30T08:39:27.229Z,96949.19
2022-10-30T08:40:29.000Z,96930.91
2022-10-30T08:41:30.391Z,96952.63
2022-10-30T08:42:31.806Z,96942.44
2022-10-30T08:43:33.136Z,96951.13
2022-10-30T08:44:34.456Z,96945.72
2022-10-30T08:45:36.093Z,96941.75
2022-10-30T08:46:37.761Z,96947.41
2022-10-30T08:47:39.172Z,96943.31
2022-10-30T08:48:40.539Z,96942.09
2022-10-30T08:49:42.011Z,96935.53
2022-10-30T08:50:44.365Z,96943.78
2022-10-30T08:51:46.019Z,96954.19
2022-10-30T08:52:49.569Z,96953.28
2022-10-30T08:53:53.704Z,96958.63
2022-10-30T08:54:55.031Z,96943.03
2022-10-30T08:55:56.447Z,96950.34
2022-10-30T08:56:57.887Z,96955.19
2022-10-30T08:57:59.929Z,96941.56
2022-10-30T08:59:01.304Z,96949.94
2022-10-30T09:05:02.056Z,96948.63
2022-10-30T09:06:03.542Z,96951.38
2022-10-30T09:07:07.545Z,96944.38
2022-10-30T09:08:11.719Z,96945.75
2022-10-30T09:09:14.491Z,96940.53
2022-10-30T09:10:15.887Z,96944.53
2022-10-30T09:11:17.487Z,96938.28
2022-10-30T09:12:18.867Z,96946.63
2022-10-30T09:13:20.213Z,96951.47
2022-10-30T09:14:25.765Z,96947.00
2022-10-30T09:15:27.579Z,96949.50
2022-10-30T09:16:28.929Z,96943.00
2022-10-30T09:17:30.498Z,96948.66
2022-10-30T09:18:31.977Z,96946.47
2022-10-30T09:19:33.331Z,96943.44
2022-10-30T09:20:34.687Z,96935.72
2022-10-30T09:21:39.868Z,96943.19
2022-10-30T09:22:42.026Z,96947.91
2022-10-30T09:23:44.028Z,96951.06
2022-10-30T09:24:45.384Z,96955.81
2022-10-30T09:25:46.753Z,96951.06
2022-10-30T09:26:51.685Z,96955.75
2022-10-30T09:27:53.023Z,96956.75
2022-10-30T09:28:54.397Z,96956.94
2022-10-30T09:29:55.781Z,96948.94
2022-10-30T09:30:57.362Z,96948.31
2022-10-30T09:32:00.151Z,96954.50
2022-10-30T09:33:06.111Z,96953.47
2022-10-30T09:34:07.501Z,96959.00
2022-10-30T09:35:09.134Z,96951.47
2022-10-30T09:36:10.570Z,96951.00
2022-10-30T09:37:11.886Z,96946.09
2022-10-30T09:38:13.305Z,96956.22
2022-10-30T09:39:14.784Z,96950.59
2022-10-30T09:40:47.307Z,96946.53
2022-10-30T09:42:03.493Z,96959.19
2022-10-30T09:43:49.149Z,96957.03
2022-10-30T09:45:27.788Z,96934.22
2022-10-30T09:46:45.610Z,96945.91
2022-10-30T09:48:04.915Z,96960.38
2022-10-30T09:49:12.003Z,96960.91
2022-10-30T09:50:29.387Z,96954.09
2022-10-30T09:58:45.061Z,96961.13
2022-10-30T10:00:00.767Z,96960.56
2022-10-30T10:01:14.793Z,96939.59
2022-10-30T10:02:20.746Z,96963.09
2022-10-30T10:05:02.881Z,96962.38
2022-10-30T10:06:11.597Z,96961.63
2022-10-30T10:07:37.676Z,96955.69
2022-10-30T10:08:41.852Z,96961.03
2022-10-30T10:09:44.228Z,96940.56
2022-10-30T10:11:00.255Z,96946.28
2022-10-30T10:12:38.319Z,96958.69
2022-10-30T10:13:47.936Z,96950.78
2022-10-30T10:14:49.512Z,96958.56
2022-10-30T10:15:55.990Z,96966.16
2022-10-30T10:17:00.938Z,96967.56
2022-10-30T10:18:06.848Z,96958.03
2022-10-30T10:19:20.175Z,96960.53
2022-10-30T10:20:32.565Z,96946.09
2022-10-30T10:21:44.798Z,96961.56
2022-10-30T10:22:50.426Z,96959.09
2022-10-30T10:24:04.281Z,96959.81
2022-10-30T10:25:12.480Z,96963.41
2022-10-30T10:26:43.801Z,96964.09
2022-10-30T10:27:59.949Z,96957.25
2022-10-30T10:29:15.356Z,96956.97
2022-10-30T10:30:20.211Z,96956.44
2022-10-30T10:31:38.943Z,96959.63
2022-10-30T10:33:25.896Z,96951.66
2022-10-30T10:35:06.837Z,96950.44
2022-10-30T10:36:12.999Z,96949.31
2022-10-30T10:37:31.715Z,96945.88
2022-10-30T10:39:07.411Z,96959.38
2022-10-30T10:40:44.286Z,96949.41
2022-10-30T10:42:00.986Z,96953.22
2022-10-30T10:43:25.195Z,96958.19
2022-10-30T10:44:35.716Z,96954.44
2022-10-30T10:45:55.858Z,96953.13
2022-10-30T10:47:55.086Z,96939.38
2022-10-30T10:49:17.647Z,96946.34
2022-10-30T10:50:30.967Z,96954.91
2022-10-30T10:51:44.011Z,96947.59
2022-10-30T10:52:59.131Z,96949.19
2022-10-30T10:54:06.701Z,96939.28
2022-10-30T10:55:17.599Z,96942.09
2022-10-30T10:56:26.065Z,96942.31
2022-10-30T11:03:02.436Z,96942.44
2022-10-30T11:04:12.717Z,96930.72
2022-10-30T11:05:17.207Z,96935.53
2022-10-30T11:06:22.488Z,96932.25
2022-10-30T11:07:30.323Z,96933.81
2022-10-30T11:08:35.326Z,96926.66
2022-10-30T11:09:36.749Z,96911.78
2022-10-30T11:10:38.340Z,96934.59
2022-10-30T11:11:39.745Z,96930.13
2022-10-30T11:12:41.804Z,96922.00
2022-10-30T11:13:45.280Z,96928.41
2022-10-30T11:20:04.643Z,96928.28
2022-10-30T11:21:43.122Z,96923.53
2022-10-30T11:22:49.818Z,96922.88
2022-10-30T11:23:51.675Z,96929.41
2022-10-30T11:24:53.003Z,96915.50
2022-10-30T11:25:54.382Z,96919.22
2022-10-30T11:26:58.285Z,96918.44
2022-10-30T11:28:03.470Z,96921.38
2022-10-30T11:29:12.636Z,96924.56
2022-10-30T11:30:20.071Z,96924.00
2022-10-30T11:31:23.142Z,96938.97
2022-10-30T11:38:04.872Z,96917.97
2022-10-30T11:39:11.198Z,96921.06
2022-10-30T11:40:12.663Z,96919.84
2022-10-30T11:41:18.246Z,96916.03
2022-10-30T11:42:19.599Z,96921.47
2022-10-30T11:43:24.091Z,96912.09
2022-10-30T11:44:30.828Z,96893.50
2022-10-30T11:45:36.372Z,96919.84
2022-10-30T11:46:42.569Z,96899.19
2022-10-30T11:47:44.756Z,96917.09
2022-10-30T11:48:46.925Z,96922.78
2022-10-30T11:49:53.914Z,96918.66
2022-10-30T11:51:03.376Z,96899.72
2022-10-30T11:52:06.632Z,96911.31
2022-10-30T11:53:17.324Z,96911.59
2022-10-30T11:54:21.508Z,96912.84
2022-10-30T11:55:39.164Z,96915.16
2022-10-30T12:02:04.927Z,96912.22
2022-10-30T12:03:28.036Z,96906.91
2022-10-30T12:04:32.833Z,96889.47
2022-10-30T12:05:38.629Z,96905.34
2022-10-30T12:06:40.055Z,96910.22
2022-10-30T12:07:41.447Z,96895.91
2022-10-30T12:09:02.068Z,96905.22
2022-10-30T12:10:04.465Z,96898.31
2022-10-30T12:11:06.709Z,96908.34
2022-10-30T12:12:28.999Z,96903.47
2022-10-30T12:13:39.604Z,96907.69
2022-10-30T12:14:41.060Z,96902.41
2022-10-30T12:15:43.500Z,96879.72
2022-10-30T12:16:47.290Z,96911.72
2022-10-30T12:17:53.788Z,96896.94
2022-10-30T12:19:09.296Z,96906.44
2022-10-30T12:20:15.025Z,96886.56
2022-10-30T12:21:19.817Z,96886.56
2022-10-30T12:22:27.191Z,96897.31
2022-10-30T12:23:29.067Z,96906.38
2022-10-30T12:24:33.644Z,96895.03
2022-10-30T12:25:36.770Z,96892.94
2022-10-30T12:26:39.734Z,96875.94
2022-10-30T12:27:41.280Z,96887.63
2022-10-30T12:28:58.471Z,96897.19
2022-10-30T12:30:08.312Z,96897.31
2022-10-30T12:31:17.655Z,96894.63
2022-10-30T12:38:04.887Z,96895.50
2022-10-30T12:39:26.161Z,96879.94
2022-10-30T12:40:31.458Z,96886.84
2022-10-30T12:41:47.711Z,96891.81
2022-10-30T12:42:58.851Z,96848.75
2022-10-30T12:44:23.216Z,96886.91
2022-10-30T12:45:31.380Z,96885.19
2022-10-30T12:47:05.550Z,96880.78
2022-10-30T12:48:23.012Z,96884.78
2022-10-30T12:49:39.746Z,96892.13
2022-10-30T12:51:03.520Z,96852.16
2022-10-30T12:52:26.271Z,96887.19
2022-10-30T12:53:36.574Z,96884.88
2022-10-30T12:55:08.087Z,96880.25
2022-10-30T12:56:17.211Z,96883.88
2022-10-30T12:57:23.183Z,96877.59
2022-10-30T12:58:46.821Z,96884.56
2022-10-30T12:59:57.236Z,96874.63
2022-10-30T13:01:13.832Z,96870.75
2022-10-30T13:02:36.797Z,96870.44
2022-10-30T13:04:02.941Z,96875.38
2022-10-30T13:05:17.947Z,96857.63
2022-10-30T13:06:25.918Z,96873.47
2022-10-30T13:07:47.375Z,96844.13
2022-10-30T13:08:54.406Z,96878.06
2022-10-30T13:09:58.803Z,96879.72
2022-10-30T13:11:09.563Z,96852.38
2022-10-30T13:12:17.988Z,96866.63
2022-10-30T13:13:25.922Z,96867.31
2022-10-30T13:14:44.413Z,96863.94
2022-10-30T13:15:53.345Z,96876.34
2022-10-30T13:16:54.676Z,96860.81
2022-10-30T13:17:59.208Z,96865.78
2022-10-30T13:19:02.368Z,96839.75
2022-10-30T13:20:12.430Z,96872.38
2022-10-30T13:21:24.250Z,96858.66
2022-10-30T13:22:52.220Z,96872.44
2022-10-30T13:30:23.073Z,96868.72
2022-10-30T13:32:00.444Z,96855.53
2022-10-30T13:33:34.203Z,96862.56
2022-10-30T13:34:44.708Z,96861.41
2022-10-30T13:35:56.480Z,96867.25
2022-10-30T13:37:10.919Z,96861.00
2022-10-30T13:38:18.242Z,96859.56
2022-10-30T13:39:24.343Z,96859.81
2022-10-30T13:40:42.092Z,96846.53
2022-10-30T13:42:12.371Z,96862.50
2022-10-30T13:43:31.473Z,96852.25
2022-10-30T13:44:48.072Z,96862.31
2022-10-30T13:46:04.952Z,96861.88
2022-10-30T13:47:34.165Z,96857.88
2022-10-30T13:54:06.583Z,96856.09
2022-10-30T13:55:17.534Z,96857.78
2022-10-30T13:56:21.899Z,96844.56
2022-10-30T13:57:41.476Z,96855.25
2022-10-30T13:59:00.058Z,96850.50
2022-10-30T14:00:22.732Z,96848.81
2022-10-30T14:01:37.374Z,96859.84
2022-10-30T14:02:41.832Z,96858.31
2022-10-30T14:04:02.186Z,96863.34
2022-10-30T14:11:54.351Z,96834.59
2022-10-30T14:12:55.833Z,96860.22
2022-10-30T14:14:04.359Z,96856.34
2022-10-30T14:15:06.199Z,96859.03
2022-10-30T14:16:27.836Z,96847.63
2022-10-30T14:17:31.409Z,96857.03
2022-10-30T14:18:45.716Z,96847.81
2022-10-30T14:20:10.570Z,96858.53
2022-10-30T14:21:40.915Z,96855.38
2022-10-30T14:22:42.373Z,96857.03
2022-10-30T14:23:43.816Z,96856.78
2022-10-30T14:24:45.550Z,96850.22
2022-10-30T14:26:02.396Z,96862.75
2022-10-30T14:27:03.699Z,96862.53
2022-10-30T14:28:06.061Z,96852.53
2022-10-30T14:29:31.790Z,96858.16
2022-10-30T14:30:34.296Z,96856.06
2022-10-30T14:31:36.700Z,96859.03
2022-10-30T14:32:40.285Z,96855.13
2022-10-30T14:33:56.943Z,96865.53
2022-10-30T14:34:58.713Z,96857.97
2022-10-30T14:36:38.851Z,96865.28
2022-10-30T14:37:40.118Z,96865.25
2022-10-30T14:38:45.677Z,96862.56
2022-10-30T14:39:48.424Z,96858.84
2022-10-30T14:41:11.246Z,96852.28
2022-10-30T14:42:23.942Z,96841.03
2022-10-30T14:43:48.303Z,96863.22
2022-10-30T14:44:58.359Z,96853.09
2022-10-30T14:46:04.832Z,96865.78
2022-10-30T14:59:04.374Z,96870.97
2022-10-30T15:00:24.070Z,96868.22
2022-10-30T15:01:35.216Z,96845.16
2022-10-30T15:03:10.697Z,96859.16
2022-10-30T15:04:22.187Z,96860.66
2022-10-30T15:05:58.699Z,96860.19
2022-10-30T15:07:18.166Z,96871.22
2022-10-30T15:08:52.909Z,96869.28
2022-10-30T15:10:05.666Z,96869.13
2022-10-30T15:18:01.256Z,96860.06
2022-10-30T15:19:08.708Z,96858.44
2022-10-30T15:20:19.090Z,96858.50
2022-10-30T15:21:27.929Z,96835.28
2022-10-30T15:22:30.744Z,96866.03
2022-10-30T15:23:37.186Z,96865.41
2022-10-30T15:24:40.226Z,96861.16
2022-10-30T15:25:49.178Z,96860.84
2022-10-30T15:26:53.235Z,96854.34
2022-10-30T15:27:59.615Z,96826.41
2022-10-30T15:47:20.438Z,96838.06
2022-10-30T15:48:28.691Z,96857.53
2022-10-30T15:49:35.402Z,96861.66
2022-10-30T15:50:52.296Z,96863.06
2022-10-30T15:51:53.770Z,96865.84
2022-10-30T15:52:55.956Z,96850.53
2022-10-30T15:59:06.607Z,96866.00
2022-10-30T16:00:30.203Z,96857.97
2022-10-30T16:01:37.203Z,96867.34
2022-10-30T16:02:38.824Z,96869.25
2022-10-30T16:03:42.205Z,96873.44
2022-10-30T16:04:48.194Z,96870.06
2022-10-30T16:17:10.848Z,96875.00
2022-10-30T16:18:25.256Z,96875.75
2022-10-30T16:19:30.494Z,96863.31
2022-10-30T16:20:32.708Z,96869.50
2022-10-30T16:21:35.106Z,96869.97
2022-10-30T16:22:39.384Z,96866.13
2022-10-30T16:23:46.228Z,96865.53
2022-10-30T16:24:51.751Z,96865.66
2022-10-30T16:25:55.877Z,96869.03
2022-10-30T16:27:04.596Z,96867.47
2022-10-30T16:28:06.604Z,96869.72
2022-10-30T16:41:06.391Z,96868.59
2022-10-30T16:42:20.275Z,96875.41
2022-10-30T16:43:24.373Z,96875.78
2022-10-30T16:44:33.656Z,96875.38
2022-10-30T16:45:34.940Z,96876.31
2022-10-30T16:46:41.087Z,96857.38
2022-10-30T16:47:46.530Z,96876.22
2022-10-30T16:48:58.420Z,96871.19
2022-10-30T16:49:59.747Z,96874.91
2022-10-30T16:51:03.379Z,96877.53
2022-10-30T16:52:07.171Z,96882.31
2022-10-30T16:53:20.603Z,96849.72
2022-10-30T16:54:27.489Z,96875.16
2022-10-30T16:55:29.710Z,96881.28
2022-10-30T16:56:32.459Z,96867.81
2022-10-30T16:57:37.986Z,96877.97
2022-10-30T16:58:39.638Z,96884.53
2022-10-30T16:59:52.086Z,96881.25
2022-10-30T17:01:06.903Z,96875.00
2022-10-30T17:02:21.433Z,96896.03
2022-10-30T17:03:26.460Z,96897.44
2022-10-30T17:04:29.492Z,96895.94
2022-10-30T17:11:04.560Z,96906.06
2022-10-30T17:12:20.238Z,96893.09
2022-10-30T17:14:02.160Z,96902.06
2022-10-30T17:15:06.265Z,96901.22
2022-10-30T17:16:28.715Z,96905.78
2022-10-30T17:17:36.249Z,96879.56
2022-10-30T17:18:37.815Z,96899.09
2022-10-30T17:19:46.390Z,96907.34
2022-10-30T17:21:21.986Z,96916.09
2022-10-30T17:22:24.720Z,96907.53
2022-10-30T17:29:02.279Z,96917.31
2022-10-30T17:30:24.454Z,96895.91
2022-10-30T17:31:40.926Z,96928.78
2022-10-30T17:32:44.932Z,96915.88
2022-10-30T17:33:47.795Z,96915.78
2022-10-30T17:35:09.618Z,96928.22
2022-10-30T17:36:10.990Z,96922.06
2022-10-30T17:37:12.593Z,96921.97
2022-10-30T17:38:13.961Z,96925.97
2022-10-30T17:39:15.628Z,96912.63
2022-10-30T17:40:18.121Z,96930.19
2022-10-30T17:41:19.556Z,96925.25
2022-10-30T17:42:20.997Z,96930.41
2022-10-30T17:43:27.855Z,96923.94
2022-10-30T17:44:35.270Z,96914.19
2022-10-30T17:45:36.646Z,96930.16
2022-10-30T17:46:38.011Z,96937.97
2022-10-30T17:47:39.436Z,96908.72
2022-10-30T17:48:41.505Z,96926.78
2022-10-30T17:49:43.485Z,96938.66
2022-10-30T17:50:45.198Z,96937.06
2022-10-30T17:57:04.806Z,96950.13
2022-10-30T17:58:06.170Z,96946.25
2022-10-30T17:59:07.729Z,96950.88
2022-10-30T18:00:09.668Z,96945.03
2022-10-30T18:01:17.236Z,96950.03
2022-10-30T18:02:22.272Z,96954.38
2022-10-30T18:03:23.761Z,96934.81
2022-10-30T18:04:25.468Z,96952.28
2022-10-30T18:05:29.473Z,96956.72
2022-10-30T18:06:31.060Z,96957.22
2022-10-30T18:07:32.643Z,96930.31
2022-10-30T18:08:34.020Z,96955.78
2022-10-30T18:21:04.313Z,96958.28
2022-10-30T18:22:05.700Z,96960.09
2022-10-30T18:23:50.467Z,96955.66
2022-10-30T18:24:40.096Z,96952.66
2022-10-30T18:25:41.671Z,96959.63
2022-10-30T18:26:43.022Z,96959.31
2022-10-30T18:27:47.285Z,96965.16
2022-10-30T18:28:51.938Z,96960.47
2022-10-30T18:29:53.312Z,96954.88
2022-10-30T18:30:57.156Z,96955.75
2022-10-30T18:31:58.516Z,96954.25
2022-10-30T18:33:00.073Z,96959.22
2022-10-30T18:34:01.694Z,96964.38
2022-10-30T18:35:12.550Z,96964.38
2022-10-30T18:36:16.472Z,96952.91
2022-10-30T18:37:17.807Z,96968.25
2022-10-30T18:38:19.237Z,96963.44
2022-10-30T18:39:20.664Z,96948.38
2022-10-30T18:40:22.756Z,96950.41
2022-10-30T18:41:36.580Z,96954.34
2022-10-30T18:42:38.132Z,96961.78
2022-10-30T18:43:43.689Z,96968.00
2022-10-30T18:44:50.822Z,96966.66
2022-10-30T18:45:52.172Z,96949.50
2022-10-30T18:46:54.868Z,96968.63
2022-10-30T18:48:00.859Z,96969.28
2022-10-30T18:49:02.472Z,96961.09
2022-10-30T18:50:07.146Z,96961.56
2022-10-30T18:51:17.828Z,96973.72
2022-10-30T18:52:19.176Z,96969.75
2022-10-30T18:53:21.000Z,96969.66
2022-10-30T18:54:22.340Z,96966.16
2022-10-30T18:55:37.128Z,96973.88
2022-10-30T18:56:38.882Z,96973.00
2022-10-30T18:57:40.248Z,96976.13
2022-10-30T18:58:41.635Z,96971.97
2022-10-30T18:59:42.956Z,96975.69
2022-10-30T19:02:23.457Z,96952.75
2022-10-30T19:21:35.323Z,96980.09
2022-10-30T19:22:36.725Z,96975.53
2022-10-30T19:23:38.126Z,96974.63
2022-10-30T19:24:39.498Z,96978.75
2022-10-30T19:25:44.232Z,96938.66
2022-10-30T19:26:45.580Z,96975.03
2022-10-30T19:27:47.539Z,96978.41
2022-10-30T19:28:48.861Z,96972.22
2022-10-30T19:29:50.320Z,96972.41
2022-10-30T19:30:52.845Z,96982.47
2022-10-30T19:31:54.193Z,96984.84
2022-10-30T19:32:55.686Z,96979.69
2022-10-30T19:33:57.370Z,96967.56
2022-10-30T19:34:58.993Z,96974.53
2022-10-30T19:36:04.510Z,96988.25
2022-10-30T19:37:09.526Z,96983.75
2022-10-30T19:38:12.020Z,96957.44
2022-10-30T19:46:00.158Z,96998.22
2022-10-30T19:47:01.488Z,96993.81
2022-10-30T19:48:20.652Z,96996.75
2022-10-30T19:49:25.953Z,97004.19
2022-10-30T19:50:37.290Z,97006.13
2022-10-30T19:51:38.604Z,97004.53
2022-10-30T19:52:39.929Z,97012.81
2022-10-30T19:53:41.322Z,97012.31
2022-10-30T19:54:42.636Z,97011.75
2022-10-30T19:55:44.081Z,97006.25
2022-10-30T19:56:45.463Z,97008.59
2022-10-30T19:57:47.291Z,97018.41
2022-10-30T19:58:49.134Z,97008.59
2022-10-30T19:59:53.546Z,97007.47
2022-10-30T20:00:55.441Z,96986.09
2022-10-30T20:01:57.154Z,97017.03
2022-10-30T20:02:59.968Z,96987.34
